Time;durP1;ratioP1;P1;durP2;ratioP2;P2;SDS_P1;SDS_P2;PMS_P1;PMS_P2;Temp;Humidity;BMP_temperature;BMP_pressure;BME280_temperature;BME280_humidity;BME280_pressure;Samples;Min_cycle;Max_cycle;Signal;HPM_P1;HPM_P2
2022/09/09 00:00:56;;;;;;;3.70;2.10;;;14.90;99.90;;;;;;4142720;28;20588;-79
2022/09/09 00:03:10;;;;;;;2.30;2.00;;;14.90;99.90;;;;;;4149257;28;20891;-79
2022/09/09 00:05:22;;;;;;;3.33;1.80;;;14.80;99.90;;;;;;4144751;28;20872;-79
2022/09/09 00:07:34;;;;;;;2.57;2.07;;;14.80;99.90;;;;;;4149737;28;20300;-79
2022/09/09 00:09:41;;;;;;;2.60;2.00;;;14.80;99.90;;;;;;4140408;28;20628;-79
2022/09/09 00:11:47;;;;;;;3.20;2.30;;;14.80;99.90;;;;;;4146396;28;20244;-79
2022/09/09 00:13:53;;;;;;;3.17;2.00;;;14.80;99.90;;;;;;4142423;28;20219;-79
2022/09/09 00:16:01;;;;;;;3.30;1.80;;;14.80;99.90;;;;;;4138703;28;20599;-79
2022/09/09 00:18:14;;;;;;;2.93;2.23;;;14.70;99.90;;;;;;4159030;28;20266;-79
2022/09/09 00:20:25;;;;;;;3.63;2.17;;;14.70;99.90;;;;;;4143252;28;20740;-79
2022/09/09 00:22:31;;;;;;;4.83;2.00;;;14.70;99.90;;;;;;4144452;28;20214;-79
2022/09/09 00:24:42;;;;;;;3.23;2.00;;;14.70;99.90;;;;;;4148422;28;20649;-79
2022/09/09 00:26:52;;;;;;;3.47;1.93;;;14.70;99.90;;;;;;4150654;28;20346;-79
2022/09/09 00:29:01;;;;;;;7.53;2.10;;;14.70;99.90;;;;;;4152353;28;20685;-79
2022/09/09 00:31:12;;;;;;;3.20;1.80;;;14.70;99.90;;;;;;4147495;28;20211;-79
2022/09/09 00:33:16;;;;;;;2.70;1.97;;;14.60;99.90;;;;;;4145256;28;20602;-79
2022/09/09 00:35:23;;;;;;;4.80;1.83;;;14.60;99.90;;;;;;4144244;28;20212;-79
2022/09/09 00:37:27;;;;;;;4.67;2.03;;;14.60;99.90;;;;;;4144331;28;20274;-79
2022/09/09 00:39:37;;;;;;;2.73;1.90;;;14.60;99.90;;;;;;4138767;28;20291;-79
2022/09/09 00:41:52;;;;;;;4.40;1.90;;;14.60;99.90;;;;;;4138368;28;20232;-79
2022/09/09 00:43:59;;;;;;;3.00;1.90;;;14.60;99.90;;;;;;4137551;28;20218;-79
2022/09/09 00:46:22;;;;;;;4.40;1.93;;;14.60;99.90;;;;;;4145836;28;20299;-79
2022/09/09 00:48:32;;;;;;;3.83;2.00;;;14.60;99.90;;;;;;4139178;28;20244;-79
2022/09/09 00:50:45;;;;;;;4.27;2.40;;;14.60;99.90;;;;;;4133358;28;20239;-79
2022/09/09 00:52:59;;;;;;;3.50;2.00;;;14.60;99.90;;;;;;4141298;28;20231;-79
2022/09/09 00:55:11;;;;;;;2.87;1.90;;;14.60;99.90;;;;;;4134675;28;20659;-79
2022/09/09 00:57:28;;;;;;;3.20;1.77;;;14.60;99.90;;;;;;4136709;28;20213;-79
2022/09/09 00:59:37;;;;;;;3.80;2.03;;;14.60;99.90;;;;;;4137066;28;20210;-79
2022/09/09 01:01:40;;;;;;;3.40;1.70;;;14.50;99.90;;;;;;4135657;28;20290;-79
2022/09/09 01:03:49;;;;;;;3.03;1.80;;;14.50;99.90;;;;;;4139661;28;20204;-79
2022/09/09 01:06:02;;;;;;;1.90;1.70;;;14.50;99.90;;;;;;4137587;28;20255;-79
2022/09/09 01:08:12;;;;;;;2.27;1.87;;;14.50;99.90;;;;;;4138388;28;20753;-79
2022/09/09 01:10:26;;;;;;;3.60;1.73;;;14.50;99.90;;;;;;4146197;28;20235;-79
2022/09/09 01:12:39;;;;;;;3.50;1.70;;;14.50;99.90;;;;;;4144917;28;20211;-79
2022/09/09 01:14:45;;;;;;;2.17;1.73;;;14.40;99.90;;;;;;4148692;28;20222;-79
2022/09/09 01:16:49;;;;;;;3.67;2.00;;;14.40;99.90;;;;;;4138920;28;20667;-79
2022/09/09 01:18:53;;;;;;;3.43;1.83;;;14.40;99.90;;;;;;4150303;28;20255;-79
2022/09/09 01:21:03;;;;;;;4.30;2.00;;;14.40;99.90;;;;;;4144209;28;20211;-79
2022/09/09 01:23:25;;;;;;;1.93;1.63;;;14.40;99.90;;;;;;4151423;28;20223;-79
2022/09/09 01:26:09;;;;;;;1.97;1.77;;;14.40;99.90;;;;;;4143459;28;20289;-79
2022/09/09 01:28:14;;;;;;;4.33;2.03;;;14.30;99.90;;;;;;4144145;28;20626;-79
2022/09/09 01:30:18;;;;;;;2.13;1.77;;;14.30;99.90;;;;;;4151396;28;20295;-79
2022/09/09 01:32:43;;;;;;;2.00;1.80;;;14.30;99.90;;;;;;4153252;28;20296;-79
2022/09/09 01:34:46;;;;;;;2.63;1.50;;;14.30;99.90;;;;;;4151966;28;20222;-79
2022/09/09 01:36:54;;;;;;;3.60;1.87;;;14.30;99.90;;;;;;4152027;28;20219;-79
2022/09/09 01:38:56;;;;;;;2.00;1.80;;;14.30;99.90;;;;;;4152638;28;20612;-79
2022/09/09 01:40:58;;;;;;;3.40;1.93;;;14.30;99.90;;;;;;4152441;28;20243;-79
2022/09/09 01:43:02;;;;;;;3.57;1.60;;;14.30;99.90;;;;;;4151167;28;20323;-79
2022/09/09 01:45:06;;;;;;;3.40;1.90;;;14.30;99.90;;;;;;4154351;28;20584;-79
2022/09/09 01:47:08;;;;;;;2.50;1.80;;;14.30;99.90;;;;;;4147213;28;20292;-79
2022/09/09 01:49:11;;;;;;;2.63;1.87;;;14.20;99.90;;;;;;4151496;28;20244;-79
2022/09/09 01:51:13;;;;;;;3.07;2.10;;;14.20;99.90;;;;;;4139496;28;20196;-79
2022/09/09 01:53:16;;;;;;;2.67;1.80;;;14.20;99.90;;;;;;4143430;28;20624;-79
2022/09/09 01:55:25;;;;;;;3.50;1.87;;;14.20;99.90;;;;;;4139223;28;20208;-79
2022/09/09 01:57:35;;;;;;;3.10;1.87;;;14.20;99.90;;;;;;4137901;28;20208;-79
2022/09/09 01:59:53;;;;;;;3.33;1.80;;;14.20;99.90;;;;;;4135956;28;20213;-79
2022/09/09 02:02:08;;;;;;;2.10;1.73;;;14.20;99.90;;;;;;4136101;28;20200;-79
2022/09/09 02:04:20;;;;;;;2.80;1.93;;;14.20;99.90;;;;;;4140618;28;20229;-79
2022/09/09 02:06:29;;;;;;;2.30;1.80;;;14.20;99.90;;;;;;4136591;28;20211;-79
2022/09/09 02:08:40;;;;;;;2.30;1.67;;;14.20;99.90;;;;;;4136145;28;20310;-79
2022/09/09 02:10:47;;;;;;;2.87;1.70;;;14.10;99.90;;;;;;4139688;28;20306;-79
2022/09/09 02:12:53;;;;;;;4.57;2.00;;;14.20;99.90;;;;;;4137840;28;20200;-79
2022/09/09 02:15:04;;;;;;;1.63;1.50;;;14.10;99.90;;;;;;4142748;28;20204;-79
2022/09/09 02:17:11;;;;;;;2.80;1.80;;;14.10;99.90;;;;;;4143288;28;20230;-79
2022/09/09 02:19:21;;;;;;;1.87;1.63;;;14.10;99.90;;;;;;4141437;28;20271;-79
2022/09/09 02:21:24;;;;;;;2.93;1.63;;;14.10;99.90;;;;;;4142666;28;20277;-79
2022/09/09 02:23:27;;;;;;;2.77;2.13;;;14.10;99.90;;;;;;4147013;28;20227;-79
2022/09/09 02:25:30;;;;;;;4.90;1.93;;;14.10;99.90;;;;;;4147067;28;20238;-79
2022/09/09 02:27:32;;;;;;;3.57;2.03;;;14.10;99.90;;;;;;4151278;28;20203;-79
2022/09/09 02:29:39;;;;;;;3.83;2.07;;;14.10;99.90;;;;;;4152598;28;20224;-79
2022/09/09 02:31:45;;;;;;;4.73;1.90;;;14.10;99.90;;;;;;4150007;28;20236;-79
2022/09/09 02:33:52;;;;;;;2.87;1.80;;;14.10;99.90;;;;;;4142303;28;20679;-79
2022/09/09 02:36:01;;;;;;;3.60;1.90;;;14.10;99.90;;;;;;4138757;28;20299;-79
2022/09/09 02:38:08;;;;;;;3.53;1.60;;;14.10;99.90;;;;;;4136128;28;21135;-79
2022/09/09 02:40:13;;;;;;;3.00;1.60;;;14.10;99.90;;;;;;4137395;28;20267;-79
2022/09/09 02:42:15;;;;;;;3.60;1.80;;;14.00;99.90;;;;;;4140687;28;20697;-79
2022/09/09 02:44:19;;;;;;;4.80;1.80;;;14.00;99.90;;;;;;4142006;28;20695;-78
2022/09/09 02:46:39;;;;;;;2.47;1.57;;;14.00;99.90;;;;;;4144379;28;20219;-79
2022/09/09 02:48:50;;;;;;;5.97;1.93;;;14.00;99.90;;;;;;4146422;28;20235;-78
2022/09/09 02:50:59;;;;;;;2.47;1.80;;;14.00;99.90;;;;;;4138038;28;20270;-79
2022/09/09 02:53:11;;;;;;;6.50;2.00;;;14.00;99.90;;;;;;4147524;28;20200;-79
2022/09/09 02:55:21;;;;;;;5.67;1.90;;;14.00;99.90;;;;;;4150727;28;20271;-79
2022/09/09 02:57:27;;;;;;;4.80;1.50;;;14.00;99.90;;;;;;4149789;28;20214;-79
2022/09/09 02:59:30;;;;;;;4.07;1.70;;;14.00;99.90;;;;;;4147331;28;20230;-79
2022/09/09 03:01:32;;;;;;;2.33;1.70;;;14.10;99.90;;;;;;4144685;28;20742;-79
2022/09/09 03:03:34;;;;;;;2.23;1.77;;;14.00;99.90;;;;;;4149643;28;20619;-79
2022/09/09 03:05:38;;;;;;;3.20;1.60;;;14.00;99.90;;;;;;4138758;28;20335;-79
2022/09/09 03:07:40;;;;;;;3.37;1.83;;;14.00;99.90;;;;;;4140001;28;20212;-79
2022/09/09 03:09:42;;;;;;;3.90;1.60;;;13.90;99.90;;;;;;4144152;28;20202;-79
2022/09/09 03:11:44;;;;;;;4.37;1.97;;;13.90;99.90;;;;;;4142936;28;20208;-79
2022/09/09 03:13:46;;;;;;;2.93;1.60;;;13.90;99.90;;;;;;4141329;28;20208;-79
2022/09/09 03:15:51;;;;;;;3.03;1.60;;;13.90;99.90;;;;;;4135817;28;20208;-79
2022/09/09 03:17:54;;;;;;;4.73;2.10;;;13.90;99.90;;;;;;4137648;28;20248;-79
2022/09/09 03:19:57;;;;;;;3.70;2.00;;;13.90;99.90;;;;;;4143033;28;20557;-77
2022/09/09 03:22:01;;;;;;;3.43;1.53;;;13.90;99.90;;;;;;4142903;28;20589;-79
2022/09/09 03:24:04;;;;;;;3.47;1.87;;;13.90;99.90;;;;;;4146176;28;20315;-79
2022/09/09 03:26:06;;;;;;;3.67;1.57;;;13.90;99.90;;;;;;4138921;28;20881;-79
2022/09/09 03:28:08;;;;;;;2.27;1.70;;;13.90;99.90;;;;;;4143301;28;20228;-79
2022/09/09 03:30:10;;;;;;;2.97;1.70;;;13.90;99.90;;;;;;4145149;28;20300;-79
2022/09/09 03:32:12;;;;;;;2.63;1.57;;;13.90;99.90;;;;;;4141831;28;20212;-79
2022/09/09 03:34:14;;;;;;;3.13;1.70;;;13.90;99.90;;;;;;4145136;28;20215;-79
2022/09/09 03:36:16;;;;;;;3.57;1.70;;;13.80;99.90;;;;;;4138473;28;20228;-79
2022/09/09 03:38:19;;;;;;;5.50;1.67;;;13.90;99.90;;;;;;4143034;28;20322;-79
2022/09/09 03:40:21;;;;;;;3.13;1.77;;;13.80;99.90;;;;;;4138810;28;20218;-79
2022/09/09 03:42:23;;;;;;;1.80;1.60;;;13.80;99.90;;;;;;4140324;28;20950;-79
2022/09/09 03:44:25;;;;;;;1.90;1.60;;;13.80;99.90;;;;;;4140909;28;20207;-79
2022/09/09 03:46:27;;;;;;;2.10;1.60;;;13.80;99.90;;;;;;4135212;28;20747;-79
2022/09/09 03:48:29;;;;;;;3.40;1.93;;;13.80;99.90;;;;;;4139091;28;20323;-79
2022/09/09 03:50:32;;;;;;;3.27;1.60;;;13.80;99.90;;;;;;4142381;28;20564;-79
2022/09/09 03:52:35;;;;;;;2.10;1.77;;;13.80;99.90;;;;;;4136518;28;20204;-78
2022/09/09 03:54:42;;;;;;;2.07;1.70;;;13.80;99.90;;;;;;4146978;28;20232;-78
2022/09/09 03:56:44;;;;;;;3.53;1.77;;;13.80;99.90;;;;;;4149378;28;20204;-79
2022/09/09 03:58:46;;;;;;;1.90;1.60;;;13.80;99.90;;;;;;4150543;28;20270;-79
2022/09/09 04:00:55;;;;;;;2.27;1.60;;;13.80;99.90;;;;;;4143036;28;20673;-79
2022/09/09 04:02:57;;;;;;;1.93;1.47;;;13.80;99.90;;;;;;4145776;28;20268;-79
2022/09/09 04:04:59;;;;;;;2.10;1.47;;;13.80;99.90;;;;;;4151887;28;20216;-79
2022/09/09 04:07:01;;;;;;;2.80;1.60;;;13.70;99.90;;;;;;4153946;28;20727;-79
2022/09/09 04:09:03;;;;;;;2.97;1.53;;;13.70;99.90;;;;;;4151722;28;20291;-79
2022/09/09 04:11:07;;;;;;;2.80;1.33;;;13.70;99.90;;;;;;4151919;28;20212;-79
2022/09/09 04:13:09;;;;;;;4.67;2.00;;;13.70;99.90;;;;;;4149727;28;20638;-79
2022/09/09 04:15:11;;;;;;;3.10;1.40;;;13.70;99.90;;;;;;4142755;28;20234;-79
2022/09/09 04:17:13;;;;;;;3.13;1.70;;;13.70;99.90;;;;;;4139966;28;20926;-79
2022/09/09 04:19:15;;;;;;;4.23;1.70;;;13.70;99.90;;;;;;4139963;28;20269;-79
2022/09/09 04:21:17;;;;;;;4.93;1.83;;;13.70;99.90;;;;;;4140989;28;20215;-79
2022/09/09 04:23:20;;;;;;;1.67;1.40;;;13.70;99.90;;;;;;4143420;28;20228;-79
2022/09/09 04:25:22;;;;;;;3.07;1.53;;;13.70;99.90;;;;;;4140307;28;20299;-79
2022/09/09 04:27:25;;;;;;;2.10;1.70;;;13.70;99.90;;;;;;4140504;28;20235;-79
2022/09/09 04:29:27;;;;;;;2.10;1.43;;;13.70;99.90;;;;;;4138965;28;20231;-79
2022/09/09 04:31:29;;;;;;;2.47;1.50;;;13.70;99.90;;;;;;4143094;28;20208;-79
2022/09/09 04:33:31;;;;;;;2.57;1.57;;;13.70;99.90;;;;;;4139647;28;20294;-79
2022/09/09 04:35:33;;;;;;;3.80;1.70;;;13.70;99.90;;;;;;4144324;28;20201;-78
2022/09/09 04:37:35;;;;;;;3.80;1.87;;;13.70;99.90;;;;;;4136571;28;20224;-79
2022/09/09 04:39:37;;;;;;;4.60;2.27;;;13.70;99.90;;;;;;4140098;28;20303;-79
2022/09/09 04:41:39;;;;;;;2.87;1.90;;;13.60;99.90;;;;;;4140283;28;20211;-78
2022/09/09 04:43:42;;;;;;;5.20;1.97;;;13.70;99.90;;;;;;4138864;28;20220;-79
2022/09/09 04:45:44;;;;;;;4.60;1.57;;;13.70;99.90;;;;;;4141708;28;20216;-79
2022/09/09 04:47:46;;;;;;;2.27;1.60;;;13.70;99.90;;;;;;4136931;28;20295;-78
2022/09/09 04:49:48;;;;;;;3.10;2.10;;;13.70;99.90;;;;;;4137135;28;20212;-78
2022/09/09 04:51:50;;;;;;;5.23;2.13;;;13.70;99.90;;;;;;4136227;28;20215;-78
2022/09/09 04:53:53;;;;;;;2.80;1.57;;;13.70;99.90;;;;;;4144917;28;20286;-78
2022/09/09 04:56:03;;;;;;;1.53;1.40;;;13.70;99.90;;;;;;4136851;28;20200;-77
2022/09/09 04:58:05;;;;;;;2.00;1.40;;;13.70;99.90;;;;;;4140063;28;20227;-78
2022/09/09 05:00:10;;;;;;;4.07;2.27;;;13.70;99.90;;;;;;4144629;28;20213;-78
2022/09/09 05:02:12;;;;;;;4.63;2.50;;;13.70;99.90;;;;;;4134797;28;20290;-78
2022/09/09 05:04:15;;;;;;;3.17;2.23;;;13.70;99.90;;;;;;4143949;28;20247;-78
2022/09/09 05:06:19;;;;;;;2.90;1.83;;;13.70;99.90;;;;;;4141996;28;20207;-78
2022/09/09 05:08:20;;;;;;;5.07;2.10;;;13.70;99.90;;;;;;4137075;28;20232;-78
2022/09/09 05:10:23;;;;;;;2.80;1.80;;;13.70;99.90;;;;;;4141540;28;20287;-78
2022/09/09 05:12:26;;;;;;;1.83;1.63;;;13.90;99.90;;;;;;4140991;28;20275;-78
2022/09/09 05:14:28;;;;;;;2.93;1.97;;;13.70;99.90;;;;;;4140043;28;20288;-78
2022/09/09 05:16:32;;;;;;;3.27;1.70;;;13.80;99.90;;;;;;4138499;28;20235;-78
2022/09/09 05:18:34;;;;;;;3.00;1.47;;;13.70;99.90;;;;;;4140059;28;20225;-79
2022/09/09 05:20:36;;;;;;;2.30;1.67;;;13.80;99.90;;;;;;4136059;28;20205;-79
2022/09/09 05:22:38;;;;;;;5.07;2.50;;;13.80;99.90;;;;;;4137095;28;20212;-79
2022/09/09 05:24:40;;;;;;;2.97;1.70;;;13.80;99.90;;;;;;4139496;28;20747;-79
2022/09/09 05:26:42;;;;;;;3.43;1.80;;;13.80;99.90;;;;;;4141250;28;20211;-79
2022/09/09 05:28:45;;;;;;;2.53;1.53;;;13.90;99.90;;;;;;4143787;28;20220;-79
2022/09/09 05:30:47;;;;;;;3.10;1.43;;;13.90;99.90;;;;;;4142509;28;20664;-80
2022/09/09 05:32:51;;;;;;;2.90;1.57;;;13.90;99.90;;;;;;4136569;28;20304;-80
2022/09/09 05:34:53;;;;;;;4.33;1.53;;;14.00;99.90;;;;;;4141933;28;20205;-80
2022/09/09 05:36:55;;;;;;;1.80;1.50;;;14.00;99.90;;;;;;4138657;28;20236;-79
2022/09/09 05:38:57;;;;;;;2.70;1.40;;;14.00;99.90;;;;;;4144291;28;20286;-79
2022/09/09 05:40:59;;;;;;;4.57;1.47;;;14.10;99.90;;;;;;4130557;28;20692;-80
2022/09/09 05:43:02;;;;;;;2.40;1.43;;;14.10;99.90;;;;;;4136080;28;20327;-80
2022/09/09 05:45:05;;;;;;;4.13;1.40;;;14.10;99.90;;;;;;4140407;28;20204;-80
2022/09/09 05:47:07;;;;;;;1.63;1.20;;;14.10;99.90;;;;;;4142850;28;20204;-80
2022/09/09 05:49:11;;;;;;;5.60;1.33;;;14.20;99.90;;;;;;4143237;28;20781;-80
2022/09/09 05:51:16;;;;;;;3.87;1.50;;;14.20;99.90;;;;;;4136846;28;20228;-79
2022/09/09 05:53:18;;;;;;;2.40;1.40;;;14.20;99.90;;;;;;4132669;28;20239;-79
2022/09/09 05:55:20;;;;;;;2.13;1.50;;;14.30;99.90;;;;;;4138159;28;20365;-79
2022/09/09 05:57:22;;;;;;;2.10;1.40;;;14.20;99.90;;;;;;4146304;28;20340;-79
2022/09/09 05:59:24;;;;;;;3.13;1.93;;;14.30;99.90;;;;;;4147346;28;20271;-79
2022/09/09 06:01:28;;;;;;;3.90;1.73;;;14.30;99.90;;;;;;4147303;28;20493;-79
2022/09/09 06:03:30;;;;;;;10.17;5.57;;;14.40;99.90;;;;;;4148709;28;22151;-79
2022/09/09 06:05:35;;;;;;;5.67;3.23;;;14.40;99.90;;;;;;4153115;28;20284;-79
2022/09/09 06:07:37;;;;;;;4.90;2.63;;;14.40;99.90;;;;;;4151100;28;20212;-79
2022/09/09 06:09:39;;;;;;;3.77;2.37;;;14.50;99.90;;;;;;4150955;28;20214;-79
2022/09/09 06:11:41;;;;;;;4.27;1.70;;;14.50;99.90;;;;;;4148659;28;20220;-79
2022/09/09 06:13:47;;;;;;;1.97;1.27;;;14.60;99.90;;;;;;4152022;28;20212;-79
2022/09/09 06:15:52;;;;;;;2.33;1.57;;;14.60;99.90;;;;;;4147918;28;20271;-79
2022/09/09 06:17:56;;;;;;;1.57;1.30;;;14.60;99.90;;;;;;4146158;28;20789;-79
2022/09/09 06:19:58;;;;;;;2.17;1.27;;;14.70;99.90;;;;;;4146511;28;20273;-79
2022/09/09 06:22:01;;;;;;;2.70;1.40;;;14.70;99.90;;;;;;4140770;28;20237;-80
2022/09/09 06:24:04;;;;;;;2.60;1.13;;;14.80;99.90;;;;;;4139888;28;20222;-79
2022/09/09 06:26:08;;;;;;;3.37;1.47;;;14.80;99.90;;;;;;4149044;28;20230;-79
2022/09/09 06:28:10;;;;;;;3.83;1.63;;;14.80;99.90;;;;;;4153061;28;20225;-79
2022/09/09 06:30:13;;;;;;;3.13;1.43;;;14.90;99.90;;;;;;4151320;28;20213;-79
2022/09/09 06:32:15;;;;;;;2.23;1.17;;;14.90;99.90;;;;;;4143107;28;20215;-79
2022/09/09 06:34:17;;;;;;;2.03;1.10;;;15.00;99.90;;;;;;4140928;28;20230;-79
2022/09/09 06:36:20;;;;;;;2.10;1.10;;;15.00;99.90;;;;;;4140041;28;20261;-79
2022/09/09 06:38:24;;;;;;;1.97;1.20;;;15.10;99.90;;;;;;4142861;28;20227;-78
2022/09/09 06:40:26;;;;;;;3.27;1.20;;;15.10;99.90;;;;;;4137995;28;20218;-79
2022/09/09 06:42:28;;;;;;;3.33;1.20;;;15.10;99.90;;;;;;4134721;28;20378;-78
2022/09/09 06:44:31;;;;;;;3.20;1.30;;;15.20;99.90;;;;;;4136785;28;20241;-79
2022/09/09 06:46:35;;;;;;;2.43;1.10;;;15.20;99.90;;;;;;4137863;28;20572;-79
2022/09/09 06:48:37;;;;;;;2.27;1.40;;;15.20;99.90;;;;;;4143957;28;20241;-79
2022/09/09 06:50:39;;;;;;;2.03;1.10;;;15.30;99.90;;;;;;4137024;28;20231;-79
2022/09/09 06:52:41;;;;;;;1.10;0.80;;;15.40;99.90;;;;;;4148140;28;20205;-79
2022/09/09 06:54:45;;;;;;;4.07;0.90;;;15.40;99.90;;;;;;4144955;28;20205;-79
2022/09/09 06:56:46;;;;;;;1.97;1.20;;;15.40;99.90;;;;;;4145319;28;20207;-79
2022/09/09 06:58:48;;;;;;;1.23;1.07;;;15.50;99.90;;;;;;4144471;28;20230;-79
2022/09/09 07:00:50;;;;;;;2.23;1.30;;;15.50;99.90;;;;;;4143042;28;20204;-79
2022/09/09 07:02:52;;;;;;;2.57;1.37;;;15.50;99.90;;;;;;4146125;28;20210;-79
2022/09/09 07:04:54;;;;;;;1.13;0.80;;;15.60;99.90;;;;;;4139618;28;20827;-79
2022/09/09 07:06:56;;;;;;;1.23;0.90;;;15.60;99.90;;;;;;4146036;28;20291;-79
2022/09/09 07:08:59;;;;;;;2.83;1.10;;;15.60;99.90;;;;;;4140445;28;20248;-79
2022/09/09 07:11:05;;;;;;;3.07;1.03;;;15.70;99.90;;;;;;4142636;28;20269;-79
2022/09/09 07:13:07;;;;;;;3.17;1.13;;;15.70;99.90;;;;;;4154947;28;20210;-79
2022/09/09 07:15:10;;;;;;;1.93;0.90;;;15.80;99.90;;;;;;4146460;28;20219;-79
2022/09/09 07:17:15;;;;;;;2.23;1.00;;;15.80;99.90;;;;;;4143574;28;20294;-79
2022/09/09 07:19:17;;;;;;;2.50;1.17;;;15.90;99.90;;;;;;4143002;28;20254;-79
2022/09/09 07:21:20;;;;;;;1.97;1.00;;;15.90;99.90;;;;;;4145246;28;20592;-79
2022/09/09 07:23:24;;;;;;;1.93;1.07;;;16.00;99.90;;;;;;4147679;28;20263;-79
2022/09/09 07:25:29;;;;;;;3.77;1.40;;;16.00;99.90;;;;;;4142190;28;20227;-79
2022/09/09 07:27:33;;;;;;;1.23;0.90;;;16.00;99.90;;;;;;4145564;28;20196;-79
2022/09/09 07:29:34;;;;;;;5.33;0.93;;;16.10;99.90;;;;;;4140805;28;20211;-79
2022/09/09 07:31:39;;;;;;;8.43;1.43;;;16.10;99.90;;;;;;4141648;28;20210;-78
2022/09/09 07:33:41;;;;;;;2.93;1.30;;;16.10;99.90;;;;;;4137102;28;20211;-79
2022/09/09 07:35:43;;;;;;;6.57;1.50;;;16.10;99.90;;;;;;4142889;28;20218;-79
2022/09/09 07:37:45;;;;;;;1.70;0.97;;;16.20;99.90;;;;;;4140130;28;20210;-79
2022/09/09 07:39:47;;;;;;;5.87;1.37;;;16.20;99.90;;;;;;4137042;28;20308;-79
2022/09/09 07:41:50;;;;;;;3.90;1.30;;;16.20;99.90;;;;;;4140786;28;20911;-79
2022/09/09 07:43:54;;;;;;;3.33;1.20;;;16.30;99.90;;;;;;4141946;28;20287;-79
2022/09/09 07:45:58;;;;;;;3.47;1.03;;;16.30;99.90;;;;;;4135451;28;20211;-79
2022/09/09 07:48:00;;;;;;;3.03;1.30;;;16.40;99.90;;;;;;4136310;28;20708;-78
2022/09/09 07:50:02;;;;;;;4.73;1.20;;;16.40;99.90;;;;;;4136840;28;20299;-79
2022/09/09 07:52:04;;;;;;;4.37;1.30;;;16.50;99.90;;;;;;4139234;28;20345;-79
2022/09/09 07:54:09;;;;;;;3.67;1.17;;;16.50;99.90;;;;;;4137021;28;20212;-79
2022/09/09 07:56:13;;;;;;;3.10;1.10;;;16.60;99.90;;;;;;4137832;28;20306;-79
2022/09/09 07:58:14;;;;;;;3.47;1.07;;;16.60;99.90;;;;;;4141858;28;20223;-78
2022/09/09 08:00:18;;;;;;;2.23;1.13;;;16.70;99.90;;;;;;4137667;28;20209;-78
2022/09/09 08:02:20;;;;;;;3.53;1.30;;;16.80;99.90;;;;;;4140532;28;20251;-78
2022/09/09 08:04:24;;;;;;;2.43;1.00;;;16.90;99.90;;;;;;4133446;28;20260;-78
2022/09/09 08:06:27;;;;;;;2.63;1.20;;;16.90;99.90;;;;;;4140642;28;20220;-78
2022/09/09 08:08:29;;;;;;;4.47;1.20;;;17.00;99.90;;;;;;4137438;28;20287;-78
2022/09/09 08:10:31;;;;;;;2.67;1.03;;;17.10;99.90;;;;;;4143477;28;20204;-78
2022/09/09 08:12:33;;;;;;;2.60;1.03;;;17.10;99.90;;;;;;4142044;28;20300;-78
2022/09/09 08:14:35;;;;;;;3.47;1.30;;;17.20;99.90;;;;;;4139991;28;20215;-78
2022/09/09 08:16:41;;;;;;;2.47;0.97;;;17.30;99.90;;;;;;4143563;28;20220;-78
2022/09/09 08:18:43;;;;;;;3.60;0.83;;;17.40;99.90;;;;;;4142975;28;20236;-78
2022/09/09 08:20:45;;;;;;;4.33;1.00;;;17.60;99.90;;;;;;4144591;28;20302;-78
2022/09/09 08:22:47;;;;;;;2.13;1.00;;;17.70;99.90;;;;;;4142674;28;20232;-78
2022/09/09 08:24:49;;;;;;;9.33;1.13;;;17.70;99.90;;;;;;4134922;28;20280;-78
2022/09/09 08:26:51;;;;;;;3.60;1.07;;;17.80;99.90;;;;;;4145691;28;20213;-78
2022/09/09 08:28:56;;;;;;;1.80;0.87;;;17.90;99.90;;;;;;4141736;28;20705;-78
2022/09/09 08:31:08;;;;;;;1.77;0.93;;;17.90;99.90;;;;;;4143621;28;20193;-78
2022/09/09 08:33:11;;;;;;;1.37;0.80;;;17.90;99.90;;;;;;4142351;28;20625;-78
2022/09/09 08:35:13;;;;;;;4.20;1.10;;;17.90;99.90;;;;;;4140962;28;20221;-78
2022/09/09 08:37:15;;;;;;;4.33;1.40;;;17.90;99.90;;;;;;4146977;28;20210;-78
2022/09/09 08:39:19;;;;;;;1.73;1.00;;;17.90;99.90;;;;;;4150721;28;20222;-79
2022/09/09 08:42:01;;;;;;;1.80;0.93;;;18.00;99.90;;;;;;4153893;28;20233;-78
2022/09/09 08:44:08;;;;;;;1.73;1.10;;;18.00;99.90;;;;;;4153517;28;20205;-78
2022/09/09 08:46:16;;;;;;;3.83;0.97;;;18.00;99.90;;;;;;4152880;28;20244;-79
2022/09/09 08:48:32;;;;;;;4.87;1.07;;;18.20;99.90;;;;;;4149799;28;20245;-78
2022/09/09 08:50:38;;;;;;;2.90;1.17;;;18.10;99.90;;;;;;4149165;28;20277;-78
2022/09/09 08:52:45;;;;;;;1.53;1.13;;;18.10;99.90;;;;;;4149113;28;20218;-79
2022/09/09 08:54:47;;;;;;;2.90;0.90;;;18.20;99.90;;;;;;4148734;28;20251;-78
2022/09/09 08:56:50;;;;;;;4.83;1.13;;;18.20;99.90;;;;;;4147578;28;20843;-78
2022/09/09 08:58:57;;;;;;;4.50;1.00;;;18.30;99.90;;;;;;4142916;28;20305;-79
2022/09/09 09:01:16;;;;;;;2.43;1.20;;;18.30;99.90;;;;;;4147743;28;20265;-78
2022/09/09 09:03:29;;;;;;;3.43;1.20;;;18.40;99.90;;;;;;4153291;28;20229;-78
2022/09/09 09:05:38;;;;;;;2.60;1.17;;;18.50;99.90;;;;;;4146085;28;20249;-78
2022/09/09 09:07:54;;;;;;;1.97;0.90;;;18.50;99.90;;;;;;4148054;28;20291;-78
2022/09/09 09:10:03;;;;;;;3.83;1.20;;;18.60;99.90;;;;;;4141049;28;20214;-78
2022/09/09 09:12:15;;;;;;;2.00;0.73;;;18.60;99.90;;;;;;4140585;28;20653;-78
2022/09/09 09:14:23;;;;;;;4.03;0.97;;;18.70;99.90;;;;;;4143038;28;20211;-78
2022/09/09 09:16:32;;;;;;;2.30;1.00;;;18.70;99.90;;;;;;4141828;28;22156;-78
2022/09/09 09:18:36;;;;;;;2.13;0.90;;;18.80;99.90;;;;;;4145165;28;20280;-78
2022/09/09 09:20:47;;;;;;;3.10;0.90;;;18.90;99.90;;;;;;4148500;28;20214;-78
2022/09/09 09:22:51;;;;;;;3.17;0.90;;;18.90;99.90;;;;;;4145422;28;20727;-78
2022/09/09 09:24:55;;;;;;;2.00;0.90;;;19.00;99.90;;;;;;4135775;28;20234;-78
2022/09/09 09:26:57;;;;;;;2.00;1.00;;;19.00;99.90;;;;;;4144746;28;20210;-78
2022/09/09 09:29:02;;;;;;;4.00;1.00;;;19.10;99.90;;;;;;4141360;28;20230;-78
2022/09/09 09:31:06;;;;;;;2.83;0.87;;;19.20;99.90;;;;;;4151054;28;20216;-78
2022/09/09 09:33:16;;;;;;;3.33;1.20;;;19.30;99.90;;;;;;4146561;28;20211;-78
2022/09/09 09:35:19;;;;;;;2.47;1.00;;;19.40;99.90;;;;;;4140174;28;20233;-79
2022/09/09 09:37:27;;;;;;;4.00;0.90;;;19.50;99.90;;;;;;4145657;28;20321;-78
2022/09/09 09:39:36;;;;;;;2.23;0.83;;;19.70;99.90;;;;;;4147677;28;20695;-79
2022/09/09 09:41:40;;;;;;;4.70;1.10;;;19.80;99.90;;;;;;4148171;28;20233;-78
2022/09/09 09:43:43;;;;;;;3.17;1.00;;;19.90;99.90;;;;;;4146839;28;20283;-78
2022/09/09 09:45:45;;;;;;;4.07;0.90;;;20.00;99.90;;;;;;4145733;28;20231;-78
2022/09/09 09:47:47;;;;;;;5.63;0.97;;;20.10;99.90;;;;;;4140714;28;20290;-78
2022/09/09 09:49:53;;;;;;;2.30;1.13;;;20.20;99.90;;;;;;4146763;28;20199;-78
2022/09/09 09:52:01;;;;;;;4.67;1.10;;;20.30;99.90;;;;;;4140116;28;20266;-78
2022/09/09 09:54:22;;;;;;;5.00;1.20;;;20.40;99.90;;;;;;4145944;28;20222;-78
2022/09/09 09:56:29;;;;;;;4.13;1.20;;;20.50;99.90;;;;;;4143583;28;20693;-78
2022/09/09 09:58:33;;;;;;;4.10;1.20;;;20.50;99.90;;;;;;4272043;23;20259;-76
2022/09/09 10:00:35;;;;;;;5.50;0.90;;;20.50;99.90;;;;;;4141550;28;20668;-78
2022/09/09 10:02:43;;;;;;;1.70;0.73;;;20.60;99.90;;;;;;4136763;28;20208;-78
2022/09/09 10:04:46;;;;;;;4.47;1.20;;;20.60;99.90;;;;;;4141690;28;20211;-79
2022/09/09 10:06:48;;;;;;;2.17;0.70;;;20.60;99.90;;;;;;4137894;28;20707;-77
2022/09/09 10:08:51;;;;;;;4.17;1.00;;;20.60;99.90;;;;;;4140794;28;20239;-79
2022/09/09 10:11:19;;;;;;;2.63;0.83;;;20.60;99.90;;;;;;4133878;28;20220;-77
2022/09/09 10:13:28;;;;;;;1.30;0.90;;;20.70;99.90;;;;;;4139603;28;20782;-78
2022/09/09 10:15:39;;;;;;;3.37;1.10;;;20.70;99.90;;;;;;4141442;28;20214;-78
2022/09/09 10:18:01;;;;;;;4.63;1.00;;;20.80;99.90;;;;;;4148240;28;20518;-78
2022/09/09 10:20:22;;;;;;;3.33;1.10;;;20.90;99.90;;;;;;4144687;28;20228;-76
2022/09/09 10:22:28;;;;;;;2.73;1.07;;;21.00;99.90;;;;;;4145976;28;20297;-75
2022/09/09 10:25:02;;;;;;;5.97;0.83;;;21.00;99.90;;;;;;4146220;28;20337;-79
2022/09/09 10:27:12;;;;;;;3.70;0.90;;;21.00;99.90;;;;;;4133774;28;20243;-77
2022/09/09 10:29:32;;;;;;;2.60;1.10;;;21.10;99.90;;;;;;4149414;28;20716;-77
2022/09/09 10:31:43;;;;;;;5.73;1.80;;;21.10;99.90;;;;;;4134686;28;20246;-77
2022/09/09 10:33:51;;;;;;;3.47;1.00;;;21.10;99.90;;;;;;4147716;28;20208;-77
2022/09/09 10:36:02;;;;;;;2.40;1.10;;;21.10;99.90;;;;;;4139985;28;20696;-78
2022/09/09 10:38:17;;;;;;;3.13;1.20;;;21.20;99.90;;;;;;4137222;28;20212;-77
2022/09/09 10:40:30;;;;;;;4.00;1.00;;;21.20;99.90;;;;;;4150746;28;20234;-77
2022/09/09 10:42:34;;;;;;;1.73;1.10;;;21.30;99.90;;;;;;4138337;28;20282;-77
2022/09/09 10:45:04;;;;;;;3.90;0.87;;;21.30;99.90;;;;;;4143860;28;20205;-78
2022/09/09 10:47:23;;;;;;;2.47;0.83;;;21.30;99.90;;;;;;4146875;28;20227;-80
2022/09/09 10:49:49;;;;;;;1.60;0.93;;;21.30;99.90;;;;;;4150002;28;20313;-78
2022/09/09 10:52:01;;;;;;;1.17;0.80;;;21.30;99.90;;;;;;4147103;28;20242;-79
2022/09/09 10:54:17;;;;;;;1.87;0.80;;;21.30;99.90;;;;;;4151220;28;20285;-79
2022/09/09 10:56:25;;;;;;;5.47;1.20;;;21.30;99.90;;;;;;4149032;28;20267;-80